createdAt,value
2018-05-31T00:00:51.936Z,20.90
2018-05-31T00:03:20.869Z,20.90
2018-05-31T00:05:49.781Z,21.00
2018-05-31T00:08:18.800Z,20.90
2018-05-31T00:10:47.763Z,21.00
2018-05-31T00:13:16.039Z,20.90
2018-05-31T00:15:44.226Z,20.90
2018-05-31T00:18:13.146Z,20.90
2018-05-31T00:20:41.328Z,20.90
2018-05-31T00:23:09.583Z,20.90
2018-05-31T00:25:38.559Z,20.80
2018-05-31T00:28:07.471Z,20.80
2018-05-31T00:30:35.660Z,20.80
2018-05-31T00:33:03.838Z,20.70
2018-05-31T00:35:32.041Z,20.60
2018-05-31T00:38:00.333Z,20.50
2018-05-31T00:40:29.335Z,20.80
2018-05-31T00:42:57.499Z,20.80
2018-05-31T00:45:25.674Z,20.80
2018-05-31T00:47:53.877Z,20.90
2018-05-31T00:50:22.056Z,20.80
2018-05-31T00:52:50.214Z,20.90
2018-05-31T00:58:27.162Z,20.70
2018-05-31T01:00:55.323Z,20.50
2018-05-31T01:03:23.632Z,20.80
2018-05-31T01:05:51.905Z,20.90
2018-05-31T01:08:20.183Z,20.80
2018-05-31T01:10:48.429Z,20.70
2018-05-31T01:13:16.573Z,20.70
2018-05-31T01:15:44.786Z,20.70
2018-05-31T01:18:12.991Z,20.70
2018-05-31T01:20:41.955Z,20.60
2018-05-31T01:23:10.200Z,20.60
2018-05-31T01:25:38.335Z,20.60
2018-05-31T01:28:07.252Z,20.60
2018-05-31T01:30:35.456Z,20.50
2018-05-31T01:33:03.633Z,20.70
2018-05-31T01:35:31.846Z,20.60
2018-05-31T01:38:18.629Z,20.40
2018-05-31T01:40:47.715Z,20.30
2018-05-31T01:43:15.891Z,20.40
2018-05-31T01:45:44.291Z,20.50
2018-05-31T01:48:12.435Z,20.50
2018-05-31T01:50:40.659Z,20.60
2018-05-31T01:53:08.990Z,20.50
2018-05-31T01:55:37.147Z,20.50
2018-05-31T01:58:05.418Z,20.40
2018-05-31T02:00:34.227Z,20.40
2018-05-31T02:03:02.397Z,20.20
2018-05-31T02:05:30.550Z,20.20
2018-05-31T02:07:58.729Z,20.20
2018-05-31T02:10:26.896Z,20.20
2018-05-31T02:12:55.036Z,20.20
2018-05-31T02:15:23.971Z,20.20
2018-05-31T02:17:52.160Z,20.30
2018-05-31T02:20:20.418Z,20.00
2018-05-31T02:22:48.625Z,20.20
2018-05-31T02:25:16.887Z,20.20
2018-05-31T02:27:45.044Z,20.10
2018-05-31T02:30:13.211Z,20.00
2018-05-31T02:32:41.358Z,20.20
2018-05-31T02:35:09.577Z,20.20
2018-05-31T02:37:38.385Z,20.10
2018-05-31T02:40:07.460Z,20.20
2018-05-31T02:42:35.623Z,19.70
2018-05-31T02:45:03.796Z,19.90
2018-05-31T02:47:31.978Z,19.90
2018-05-31T02:50:00.190Z,19.60
2018-05-31T02:52:28.346Z,19.90
2018-05-31T02:54:56.573Z,20.10
2018-05-31T02:57:24.813Z,20.10
2018-05-31T02:59:53.025Z,20.20
2018-05-31T03:02:21.248Z,20.10
2018-05-31T03:04:49.421Z,20.20
2018-05-31T03:07:18.366Z,20.20
2018-05-31T03:09:46.580Z,20.10
2018-05-31T03:12:15.529Z,20.20
2018-05-31T03:14:43.708Z,20.00
2018-05-31T03:17:11.960Z,20.10
2018-05-31T03:19:40.135Z,20.10
2018-05-31T03:22:08.363Z,20.20
2018-05-31T03:24:37.337Z,20.20
2018-05-31T03:27:05.573Z,20.30
2018-05-31T03:29:33.849Z,20.30
2018-05-31T03:32:02.121Z,20.50
2018-05-31T03:34:30.284Z,20.40
2018-05-31T03:36:58.442Z,20.40
2018-05-31T03:39:26.689Z,20.40
2018-05-31T03:41:55.654Z,20.40
2018-05-31T03:44:23.828Z,20.60
2018-05-31T03:46:51.975Z,20.60
2018-05-31T03:49:20.159Z,20.70
2018-05-31T03:51:48.361Z,20.90
2018-05-31T03:54:16.540Z,20.90
2018-05-31T03:56:44.704Z,21.00
2018-05-31T03:59:12.878Z,21.00
2018-05-31T04:01:41.070Z,21.10
2018-05-31T04:04:10.050Z,21.20
2018-05-31T04:06:38.323Z,21.20
2018-05-31T04:09:06.473Z,21.40
2018-05-31T04:11:34.766Z,21.50
2018-05-31T04:14:02.965Z,21.40
2018-05-31T04:16:31.924Z,21.50
2018-05-31T04:19:00.099Z,21.50
2018-05-31T04:21:28.292Z,21.60
2018-05-31T04:23:56.622Z,21.60
2018-05-31T04:26:24.776Z,21.70
2018-05-31T04:28:52.938Z,21.80
2018-05-31T04:31:21.155Z,21.20
2018-05-31T04:33:49.315Z,20.80
2018-05-31T04:36:17.462Z,20.90
2018-05-31T04:38:45.665Z,21.00
2018-05-31T04:41:13.818Z,21.20
2018-05-31T04:43:42.046Z,21.40
2018-05-31T04:46:10.323Z,21.40
2018-05-31T04:48:38.507Z,21.80
2018-05-31T04:51:07.451Z,22.00
2018-05-31T04:53:35.690Z,21.60
2018-05-31T04:56:04.665Z,21.60
2018-05-31T04:58:33.609Z,21.60
2018-05-31T05:01:01.888Z,22.20
2018-05-31T05:03:30.247Z,21.80
2018-05-31T05:05:58.444Z,22.10
2018-05-31T05:08:26.621Z,22.50
2018-05-31T05:10:54.918Z,22.60
2018-05-31T05:13:23.092Z,22.40
2018-05-31T05:15:51.233Z,22.50
2018-05-31T05:18:19.426Z,22.90
2018-05-31T05:20:47.631Z,22.60
2018-05-31T05:23:16.554Z,22.50
2018-05-31T05:25:44.745Z,22.40
2018-05-31T05:28:12.970Z,23.00
2018-05-31T05:30:41.893Z,22.70
2018-05-31T05:33:10.113Z,23.10
2018-05-31T05:35:38.258Z,23.10
2018-05-31T05:38:06.467Z,23.00
2018-05-31T05:40:35.401Z,23.70
2018-05-31T05:43:03.597Z,23.70
2018-05-31T05:45:31.758Z,23.80
2018-05-31T05:47:59.966Z,24.10
2018-05-31T05:50:28.160Z,24.30
2018-05-31T05:52:57.094Z,24.40
2018-05-31T05:55:25.329Z,24.40
2018-05-31T05:57:54.244Z,24.50
2018-05-31T06:00:22.401Z,24.60
2018-05-31T06:02:51.377Z,24.60
2018-05-31T06:05:20.322Z,25.00
2018-05-31T06:07:48.490Z,24.90
2018-05-31T06:10:16.728Z,25.10
2018-05-31T06:12:44.833Z,25.30
2018-05-31T06:15:13.034Z,25.30
2018-05-31T06:17:41.201Z,25.50
2018-05-31T06:20:09.414Z,25.40
2018-05-31T06:22:38.351Z,25.60
2018-05-31T06:25:06.543Z,25.60
2018-05-31T06:27:34.698Z,25.40
2018-05-31T06:30:02.908Z,25.60
2018-05-31T06:32:31.830Z,25.90
2018-05-31T06:35:00.043Z,25.80
2018-05-31T06:37:28.297Z,25.90
2018-05-31T06:39:57.184Z,26.10
2018-05-31T06:42:25.401Z,26.20
2018-05-31T06:44:53.610Z,25.90
2018-05-31T06:47:22.822Z,26.40
2018-05-31T06:49:50.987Z,26.60
2018-05-31T06:52:19.196Z,26.70
2018-05-31T06:54:47.481Z,26.70
2018-05-31T06:57:15.626Z,27.00
2018-05-31T06:59:43.813Z,27.10
2018-05-31T07:02:12.052Z,26.80
2018-05-31T07:04:41.078Z,27.00
2018-05-31T07:07:09.217Z,27.10
2018-05-31T07:09:38.583Z,26.80
2018-05-31T07:12:07.552Z,27.50
2018-05-31T07:14:35.689Z,26.10
2018-05-31T07:17:04.605Z,26.90
2018-05-31T07:19:32.729Z,27.00
2018-05-31T07:22:00.891Z,27.20
2018-05-31T07:24:29.095Z,26.80
2018-05-31T07:26:58.034Z,26.90
2018-05-31T07:29:26.222Z,26.90
2018-05-31T07:31:54.416Z,27.40
2018-05-31T07:34:23.318Z,27.70
2018-05-31T07:36:52.241Z,27.20
2018-05-31T07:39:20.416Z,27.60
2018-05-31T07:41:48.584Z,27.90
2018-05-31T07:44:16.779Z,28.00
2018-05-31T07:46:45.211Z,28.40
2018-05-31T07:49:13.438Z,28.10
2018-05-31T07:51:41.570Z,28.30
2018-05-31T07:54:09.766Z,28.50
2018-05-31T07:56:37.931Z,28.30
2018-05-31T07:59:06.135Z,28.50
2018-05-31T08:01:34.311Z,28.60
2018-05-31T08:04:03.258Z,27.90
2018-05-31T08:06:31.421Z,28.40
2018-05-31T08:08:59.618Z,28.40
2018-05-31T08:11:27.786Z,27.80
2018-05-31T08:13:55.968Z,27.30
2018-05-31T08:16:24.163Z,28.20
2018-05-31T08:18:52.331Z,28.40
2018-05-31T08:21:20.487Z,28.70
2018-05-31T08:23:48.673Z,28.70
2018-05-31T08:26:16.962Z,29.20
2018-05-31T08:28:45.154Z,29.30
2018-05-31T08:31:13.376Z,29.40
2018-05-31T08:33:41.547Z,29.10
2018-05-31T08:36:09.844Z,29.40
2018-05-31T08:38:37.983Z,29.70
2018-05-31T08:41:06.160Z,29.70
2018-05-31T08:43:34.321Z,29.80
2018-05-31T08:46:02.554Z,29.90
2018-05-31T08:48:32.225Z,30.10
2018-05-31T08:51:00.460Z,30.30
2018-05-31T08:53:29.382Z,30.30
2018-05-31T08:55:57.570Z,30.40
2018-05-31T08:58:25.747Z,30.10
2018-05-31T09:00:54.532Z,30.20
2018-05-31T09:03:22.698Z,30.40
2018-05-31T09:05:50.864Z,30.70
2018-05-31T09:08:19.021Z,30.70
2018-05-31T09:10:47.162Z,30.90
2018-05-31T09:13:15.367Z,30.90
2018-05-31T09:15:43.505Z,31.10
2018-05-31T09:18:11.638Z,31.10
2018-05-31T09:20:39.786Z,30.80
2018-05-31T09:23:07.939Z,30.80
2018-05-31T09:25:36.882Z,30.40
2018-05-31T09:28:05.026Z,30.50
2018-05-31T09:30:33.213Z,30.80
2018-05-31T09:33:01.342Z,31.20
2018-05-31T09:35:30.299Z,31.40
2018-05-31T09:37:58.495Z,31.50
2018-05-31T09:40:26.630Z,31.50
2018-05-31T09:42:55.374Z,31.70
2018-05-31T09:45:24.429Z,31.70
2018-05-31T09:47:52.638Z,31.70
2018-05-31T09:50:21.553Z,31.60
2018-05-31T09:52:49.853Z,31.80
2018-05-31T09:55:18.031Z,32.00
2018-05-31T09:57:46.892Z,32.10
2018-05-31T10:00:16.861Z,32.30
2018-05-31T10:02:45.052Z,32.20
2018-05-31T10:05:13.993Z,32.20
2018-05-31T10:07:42.125Z,31.70
2018-05-31T10:10:11.149Z,31.30
2018-05-31T10:12:39.297Z,31.40
2018-05-31T10:15:07.487Z,31.60
2018-05-31T10:17:35.662Z,32.00
2018-05-31T10:20:03.879Z,32.00
2018-05-31T10:22:32.048Z,32.60
2018-05-31T10:25:00.358Z,33.00
2018-05-31T10:27:28.517Z,33.60
2018-05-31T10:29:57.465Z,34.00
2018-05-31T10:32:25.709Z,34.30
2018-05-31T10:34:53.898Z,34.50
2018-05-31T10:37:22.053Z,34.90
2018-05-31T10:39:50.202Z,35.10
2018-05-31T10:42:19.123Z,35.40
2018-05-31T10:44:47.286Z,35.50
2018-05-31T10:47:15.441Z,35.80
2018-05-31T10:49:44.408Z,36.10
2018-05-31T10:52:12.575Z,35.60
2018-05-31T10:54:40.754Z,36.00
2018-05-31T10:57:08.882Z,36.50
2018-05-31T10:59:37.082Z,36.70
2018-05-31T11:02:05.242Z,36.70
2018-05-31T11:04:33.430Z,37.00
2018-05-31T11:07:02.187Z,37.40
2018-05-31T11:09:30.670Z,37.50
2018-05-31T11:11:58.885Z,38.10
2018-05-31T11:14:27.072Z,38.40
2018-05-31T11:16:55.982Z,38.90
2018-05-31T11:19:24.929Z,39.70
2018-05-31T11:21:53.041Z,39.00
2018-05-31T11:24:22.038Z,39.80
2018-05-31T11:26:51.016Z,40.20
2018-05-31T11:29:19.999Z,41.10
2018-05-31T11:31:48.115Z,41.50
2018-05-31T11:34:16.304Z,42.20
2018-05-31T11:36:44.443Z,42.60
2018-05-31T11:39:12.584Z,42.20
2018-05-31T11:41:40.826Z,43.70
2018-05-31T11:44:08.967Z,44.40
2018-05-31T11:46:37.100Z,44.90
2018-05-31T11:49:05.756Z,44.90
2018-05-31T11:51:34.646Z,45.90
2018-05-31T11:54:02.841Z,44.50
2018-05-31T11:56:30.975Z,45.50
2018-05-31T11:58:59.162Z,47.50
2018-05-31T12:01:27.297Z,47.40
2018-05-31T12:03:55.438Z,49.10
2018-05-31T12:06:23.619Z,50.80
2018-05-31T12:08:51.853Z,51.40
2018-05-31T12:11:19.990Z,51.10
2018-05-31T12:13:48.125Z,52.30
2018-05-31T12:16:16.283Z,53.60
2018-05-31T12:18:44.442Z,55.60
2018-05-31T12:24:10.178Z,54.20
2018-05-31T12:26:38.350Z,55.60
2018-05-31T12:29:06.515Z,55.80
2018-05-31T12:31:34.665Z,56.50
2018-05-31T12:34:02.785Z,56.90
2018-05-31T12:36:31.000Z,57.80
2018-05-31T12:38:59.904Z,58.10
2018-05-31T12:41:28.037Z,59.10
2018-05-31T12:43:56.483Z,59.10
2018-05-31T12:46:25.609Z,59.10
2018-05-31T12:48:53.850Z,60.10
2018-05-31T12:51:22.026Z,60.10
2018-05-31T12:53:50.186Z,62.20
2018-05-31T12:56:18.337Z,61.00
2018-05-31T12:58:46.530Z,61.40
2018-05-31T13:01:14.713Z,61.90
2018-05-31T13:03:42.998Z,56.90
2018-05-31T13:06:11.140Z,57.60
2018-05-31T13:08:39.291Z,57.00
2018-05-31T13:11:08.219Z,55.50
2018-05-31T13:13:36.405Z,51.10
2018-05-31T13:16:04.660Z,47.80
2018-05-31T13:18:32.799Z,50.90
2018-05-31T13:21:11.644Z,55.90
2018-05-31T13:23:39.803Z,59.90
2018-05-31T13:26:07.985Z,62.40
2018-05-31T13:28:36.203Z,62.10
2018-05-31T13:31:04.408Z,60.70
2018-05-31T13:33:33.353Z,56.40
2018-05-31T13:36:02.353Z,58.40
2018-05-31T13:38:30.584Z,60.80
2018-05-31T13:40:59.839Z,61.10
2018-05-31T13:43:41.019Z,62.50
2018-05-31T13:46:09.231Z,63.50
2018-05-31T13:48:38.895Z,61.40
2018-05-31T13:51:07.048Z,61.10
2018-05-31T13:53:35.258Z,61.70
2018-05-31T13:56:03.791Z,58.90
2018-05-31T13:58:31.968Z,61.00
2018-05-31T14:01:00.156Z,61.80
2018-05-31T14:03:30.259Z,62.30
2018-05-31T14:05:58.460Z,61.10
2018-05-31T14:08:26.635Z,57.90
2018-05-31T14:10:54.845Z,58.30
2018-05-31T14:13:23.779Z,56.90
2018-05-31T14:15:51.929Z,54.90
2018-05-31T14:18:20.771Z,56.00
2018-05-31T14:20:49.090Z,58.90
2018-05-31T14:23:17.219Z,59.90
2018-05-31T14:25:45.360Z,58.00
2018-05-31T14:28:13.500Z,60.90
2018-05-31T14:30:41.678Z,61.20
2018-05-31T14:33:09.800Z,61.30
2018-05-31T14:35:37.964Z,60.10
2018-05-31T14:38:06.143Z,60.40
2018-05-31T14:40:34.314Z,62.50
2018-05-31T14:43:02.499Z,62.00
2018-05-31T14:45:30.837Z,57.40
2018-05-31T14:47:59.003Z,60.70
2018-05-31T14:50:27.198Z,63.00
2018-05-31T14:52:55.547Z,60.20
2018-05-31T14:55:23.755Z,57.30
2018-05-31T14:57:51.911Z,59.70
2018-05-31T15:00:20.076Z,58.60
2018-05-31T15:02:48.246Z,56.60
2018-05-31T15:05:16.398Z,60.10
2018-05-31T15:07:44.576Z,62.20
2018-05-31T15:10:12.758Z,61.40
2018-05-31T15:12:40.981Z,62.30
2018-05-31T15:15:09.105Z,62.20
2018-05-31T15:17:37.286Z,58.20
2018-05-31T15:20:05.420Z,59.90
2018-05-31T15:22:34.449Z,56.00
2018-05-31T15:25:02.591Z,57.20
2018-05-31T15:27:31.531Z,58.40
2018-05-31T15:29:59.690Z,58.30
2018-05-31T15:38:22.256Z,49.60
2018-05-31T15:40:50.419Z,44.40
2018-05-31T15:43:18.609Z,45.00
2018-05-31T15:45:47.502Z,44.40
2018-05-31T15:48:15.666Z,44.00
2018-05-31T15:50:43.847Z,41.20
2018-05-31T15:53:11.993Z,40.20
2018-05-31T15:55:40.189Z,39.60
2018-05-31T15:58:08.345Z,38.50
2018-05-31T16:00:36.555Z,36.90
2018-05-31T16:03:04.665Z,37.00
2018-05-31T16:05:33.610Z,36.70
2018-05-31T16:08:02.602Z,35.90
2018-05-31T16:10:30.831Z,35.10
2018-05-31T16:12:59.889Z,34.60
2018-05-31T16:15:37.965Z,34.70
2018-05-31T16:18:06.125Z,35.20
2018-05-31T16:20:34.249Z,35.30
2018-05-31T16:23:02.440Z,35.30
2018-05-31T16:25:31.341Z,35.40
2018-05-31T16:28:00.248Z,35.40
2018-05-31T16:30:28.555Z,35.10
2018-05-31T16:32:56.700Z,34.90
2018-05-31T16:35:25.033Z,34.50
2018-05-31T16:37:53.312Z,35.20
2018-05-31T16:40:22.255Z,35.00
2018-05-31T16:42:50.429Z,35.20
2018-05-31T16:45:18.641Z,35.30
2018-05-31T16:47:46.879Z,34.60
2018-05-31T16:50:15.187Z,33.00
2018-05-31T16:52:43.903Z,33.30
2018-05-31T16:55:12.845Z,33.70
2018-05-31T16:57:41.008Z,33.60
2018-05-31T17:00:09.154Z,33.30
2018-05-31T17:02:37.293Z,34.50
2018-05-31T17:05:05.451Z,36.90
2018-05-31T17:07:33.580Z,38.50
2018-05-31T17:10:01.811Z,39.40
2018-05-31T17:12:30.778Z,38.90
2018-05-31T17:14:59.010Z,38.50
2018-05-31T17:17:27.162Z,38.90
2018-05-31T17:19:56.082Z,37.70
2018-05-31T17:22:24.248Z,38.30
2018-05-31T17:24:52.398Z,38.30
2018-05-31T17:27:21.358Z,37.60
2018-05-31T17:29:49.534Z,38.00
2018-05-31T17:32:17.727Z,38.30
2018-05-31T17:34:45.866Z,37.70
2018-05-31T17:37:14.005Z,36.50
2018-05-31T17:39:42.208Z,36.00
2018-05-31T17:42:10.396Z,36.40
2018-05-31T17:44:38.525Z,36.00
2018-05-31T17:47:06.687Z,36.40
2018-05-31T17:49:34.875Z,36.00
2018-05-31T17:52:03.034Z,35.70
2018-05-31T17:54:31.254Z,35.50
2018-05-31T17:56:59.392Z,35.30
2018-05-31T17:59:27.830Z,34.90
2018-05-31T18:01:57.289Z,34.80
2018-05-31T18:04:25.441Z,34.40
2018-05-31T18:06:53.622Z,34.10
2018-05-31T18:09:21.829Z,33.60
2018-05-31T18:11:50.001Z,32.50
2018-05-31T18:14:18.226Z,32.20
2018-05-31T18:16:47.115Z,32.10
2018-05-31T18:19:15.344Z,31.90
2018-05-31T18:21:43.698Z,31.50
2018-05-31T18:24:12.230Z,31.50
2018-05-31T18:26:41.157Z,31.10
2018-05-31T18:29:09.806Z,31.00
2018-05-31T18:31:38.709Z,31.00
2018-05-31T18:34:07.639Z,31.10
2018-05-31T18:36:35.798Z,30.80
2018-05-31T18:39:03.924Z,30.30
2018-05-31T18:41:32.896Z,30.10
2018-05-31T18:44:01.090Z,29.90
2018-05-31T18:46:30.119Z,30.10
2018-05-31T18:48:58.339Z,29.90
2018-05-31T18:51:26.591Z,29.80
2018-05-31T18:53:55.210Z,29.40
2018-05-31T18:56:23.386Z,29.40
2018-05-31T18:58:52.335Z,29.20
2018-05-31T19:01:20.483Z,29.40
2018-05-31T19:03:48.654Z,29.00
2018-05-31T19:06:16.789Z,28.90
2018-05-31T19:08:45.003Z,28.80
2018-05-31T19:11:13.192Z,28.80
2018-05-31T19:13:46.972Z,28.90
2018-05-31T19:16:15.187Z,29.10
2018-05-31T19:18:48.838Z,28.90
2018-05-31T19:21:16.995Z,28.90
2018-05-31T19:23:49.474Z,28.70
2018-05-31T19:26:17.619Z,28.80
2018-05-31T19:28:45.919Z,28.80
2018-05-31T19:31:32.689Z,28.60
2018-05-31T19:34:00.841Z,28.70
2018-05-31T19:36:34.654Z,28.70
2018-05-31T19:39:04.206Z,28.70
2018-05-31T19:41:32.632Z,28.70
2018-05-31T19:44:06.502Z,28.80
2018-05-31T19:46:35.491Z,28.60
2018-05-31T19:49:04.442Z,28.60
2018-05-31T19:51:38.216Z,28.60
2018-05-31T19:54:06.397Z,28.50
2018-05-31T19:56:34.529Z,28.40
2018-05-31T19:59:09.319Z,28.40
2018-05-31T20:01:43.071Z,28.30
2018-05-31T20:04:12.020Z,28.40
2018-05-31T20:06:40.173Z,28.40
2018-05-31T20:09:08.345Z,28.40
2018-05-31T20:11:36.673Z,28.30
2018-05-31T20:14:04.903Z,28.20
2018-05-31T20:16:33.569Z,28.10
2018-05-31T20:19:01.870Z,27.90
2018-05-31T20:21:30.040Z,27.60
2018-05-31T20:23:58.199Z,27.80
2018-05-31T20:26:26.480Z,27.70
2018-05-31T20:29:05.308Z,27.80
2018-05-31T20:31:33.446Z,27.80
2018-05-31T20:34:01.633Z,27.60
2018-05-31T20:36:29.830Z,27.80
2018-05-31T20:38:58.137Z,27.80
2018-05-31T20:41:26.346Z,27.50
2018-05-31T20:43:54.471Z,27.80
2018-05-31T20:46:22.679Z,27.70
2018-05-31T20:48:50.836Z,27.70
2018-05-31T20:51:19.804Z,27.70
2018-05-31T20:53:47.966Z,27.70
2018-05-31T20:56:16.156Z,27.70
2018-05-31T20:58:44.304Z,27.70
2018-05-31T21:01:12.440Z,27.80
2018-05-31T21:03:40.605Z,27.70
2018-05-31T21:06:09.918Z,27.60
2018-05-31T21:08:38.059Z,27.50
2018-05-31T21:11:06.312Z,27.50
2018-05-31T21:13:34.531Z,27.50
2018-05-31T21:16:02.712Z,27.50
2018-05-31T21:18:30.861Z,27.40
2018-05-31T21:20:59.770Z,27.40
2018-05-31T21:23:27.957Z,27.30
2018-05-31T21:25:56.141Z,27.30
2018-05-31T21:28:24.350Z,27.20
2018-05-31T21:30:52.527Z,27.30
2018-05-31T21:33:20.673Z,27.20
2018-05-31T21:35:48.833Z,27.10
2018-05-31T21:38:17.479Z,27.00
2018-05-31T21:40:46.381Z,26.90
2018-05-31T21:43:15.267Z,26.90
2018-05-31T21:45:43.455Z,26.80
2018-05-31T21:48:11.635Z,26.80
2018-05-31T21:50:39.772Z,26.90
2018-05-31T21:53:08.688Z,26.70
2018-05-31T21:55:36.888Z,26.60
2018-05-31T21:58:05.100Z,26.50
2018-05-31T22:00:39.626Z,26.40
2018-05-31T22:03:08.524Z,26.40
2018-05-31T22:05:37.439Z,26.30
2018-05-31T22:08:05.691Z,26.30
2018-05-31T22:10:33.834Z,26.20
2018-05-31T22:13:02.091Z,26.10
2018-05-31T22:15:30.369Z,26.00
2018-05-31T22:17:58.621Z,25.80
2018-05-31T22:20:26.802Z,25.80
2018-05-31T22:22:55.066Z,25.80
2018-05-31T22:25:23.226Z,25.80
2018-05-31T22:27:51.448Z,25.70
2018-05-31T22:30:19.638Z,25.70
2018-05-31T22:32:47.855Z,25.50
2018-05-31T22:35:16.791Z,25.50
2018-05-31T22:37:44.974Z,25.60
2018-05-31T22:40:13.210Z,25.60
2018-05-31T22:42:41.394Z,25.50
2018-05-31T22:45:09.559Z,25.60
2018-05-31T22:47:37.732Z,25.60
2018-05-31T22:50:05.914Z,25.50
2018-05-31T22:52:34.182Z,25.30
2018-05-31T22:55:02.353Z,25.30
2018-05-31T22:57:30.689Z,25.40
2018-05-31T22:59:58.906Z,25.40
2018-05-31T23:02:27.064Z,24.90
2018-05-31T23:04:55.270Z,25.00
2018-05-31T23:07:23.444Z,25.10
2018-05-31T23:09:51.706Z,25.10
2018-05-31T23:12:19.977Z,24.90
2018-05-31T23:14:48.150Z,24.90
2018-05-31T23:17:16.397Z,25.00
2018-05-31T23:19:44.621Z,24.70
2018-05-31T23:22:12.770Z,24.80
2018-05-31T23:24:40.931Z,24.80
2018-05-31T23:27:09.162Z,24.60
2018-05-31T23:29:38.094Z,24.70
2018-05-31T23:32:06.255Z,24.70
2018-05-31T23:34:34.430Z,24.80
